sensor_id;sensor_type;location;lat;lon;timestamp;pressure;altitude;pressure_sealevel;temperature;humidity
3968;BME280;9221;42.646;23.380;2023-03-26T00:00:27;93979.47;;;12.07;69.78
3968;BME280;9221;42.646;23.380;2023-03-26T00:02:53;93966.94;;;11.93;69.94
3968;BME280;9221;42.646;23.380;2023-03-26T00:05:18;94009.47;;;12.14;70.01
3968;BME280;9221;42.646;23.380;2023-03-26T00:07:44;94026.31;;;12.13;70.15
3968;BME280;9221;42.646;23.380;2023-03-26T00:10:09;94059.06;;;12.04;70.70
3968;BME280;9221;42.646;23.380;2023-03-26T00:12:35;93983.91;;;11.67;70.80
3968;BME280;9221;42.646;23.380;2023-03-26T00:15:01;94033.19;;;11.91;71.16
3968;BME280;9221;42.646;23.380;2023-03-26T00:17:27;94067.69;;;11.98;71.30
3968;BME280;9221;42.646;23.380;2023-03-26T00:19:52;94032.38;;;11.91;71.44
3968;BME280;9221;42.646;23.380;2023-03-26T00:22:18;93977.09;;;11.33;71.21
3968;BME280;9221;42.646;23.380;2023-03-26T00:24:43;94043.25;;;11.88;71.48
3968;BME280;9221;42.646;23.380;2023-03-26T00:27:11;94068.34;;;12.00;71.21
3968;BME280;9221;42.646;23.380;2023-03-26T00:29:37;93959.34;;;11.66;71.03
3968;BME280;9221;42.646;23.380;2023-03-26T00:32:04;94003.28;;;11.99;71.04
3968;BME280;9221;42.646;23.380;2023-03-26T00:34:30;93958.16;;;11.69;70.99
3968;BME280;9221;42.646;23.380;2023-03-26T00:36:58;93999.97;;;11.97;70.61
3968;BME280;9221;42.646;23.380;2023-03-26T00:39:27;94016.69;;;11.89;70.57
3968;BME280;9221;42.646;23.380;2023-03-26T00:41:53;93996.41;;;11.81;71.44
3968;BME280;9221;42.646;23.380;2023-03-26T00:44:19;94012.22;;;11.90;71.46
3968;BME280;9221;42.646;23.380;2023-03-26T00:46:45;93988.13;;;11.84;71.34
3968;BME280;9221;42.646;23.380;2023-03-26T00:49:10;94004.34;;;11.81;70.95
3968;BME280;9221;42.646;23.380;2023-03-26T00:51:39;93990.28;;;11.81;70.49
3968;BME280;9221;42.646;23.380;2023-03-26T00:54:05;93940.34;;;11.63;69.85
3968;BME280;9221;42.646;23.380;2023-03-26T00:56:32;93932.16;;;11.58;69.92
3968;BME280;9221;42.646;23.380;2023-03-26T00:58:57;93948.94;;;11.65;69.71
3968;BME280;9221;42.646;23.380;2023-03-26T01:01:25;93911.22;;;11.48;69.90
3968;BME280;9221;42.646;23.380;2023-03-26T01:03:52;93942.34;;;11.61;69.57
3968;BME280;9221;42.646;23.380;2023-03-26T01:06:32;93973.25;;;11.83;68.86
3968;BME280;9221;42.646;23.380;2023-03-26T01:09:13;93953.50;;;11.71;67.97
3968;BME280;9221;42.646;23.380;2023-03-26T01:11:39;93990.09;;;11.91;67.50
3968;BME280;9221;42.646;23.380;2023-03-26T01:14:16;93955.16;;;11.72;67.43
3968;BME280;9221;42.646;23.380;2023-03-26T01:16:45;93946.94;;;11.67;67.34
3968;BME280;9221;42.646;23.380;2023-03-26T01:19:38;94009.63;;;11.81;67.23
3968;BME280;9221;42.646;23.380;2023-03-26T01:22:10;93995.38;;;11.91;67.46
3968;BME280;9221;42.646;23.380;2023-03-26T01:24:37;93954.22;;;11.65;67.96
3968;BME280;9221;42.646;23.380;2023-03-26T01:29:53;93994.41;;;11.83;68.44
3968;BME280;9221;42.646;23.380;2023-03-26T01:35:17;94050.78;;;11.67;69.18
3968;BME280;9221;42.646;23.380;2023-03-26T01:46:03;94007.66;;;11.75;69.96
3968;BME280;9221;42.646;23.380;2023-03-26T01:48:35;94021.53;;;11.77;70.27
3968;BME280;9221;42.646;23.380;2023-03-26T01:51:01;94015.97;;;11.64;70.60
3968;BME280;9221;42.646;23.380;2023-03-26T01:53:28;94004.19;;;11.27;71.15
3968;BME280;9221;42.646;23.380;2023-03-26T01:58:34;94044.31;;;11.78;71.23
3968;BME280;9221;42.646;23.380;2023-03-26T02:03:44;94020.56;;;11.70;71.51
3968;BME280;9221;42.646;23.380;2023-03-26T02:06:17;94046.09;;;11.78;71.32
3968;BME280;9221;42.646;23.380;2023-03-26T02:08:52;94035.53;;;11.78;71.54
3968;BME280;9221;42.646;23.380;2023-03-26T02:11:21;94032.44;;;11.74;71.85
3968;BME280;9221;42.646;23.380;2023-03-26T02:13:46;94028.81;;;11.67;72.08
3968;BME280;9221;42.646;23.380;2023-03-26T02:16:15;94045.19;;;11.62;72.25
3968;BME280;9221;42.646;23.380;2023-03-26T02:18:42;94026.34;;;11.65;72.52
3968;BME280;9221;42.646;23.380;2023-03-26T02:21:14;94031.16;;;11.62;72.43
3968;BME280;9221;42.646;23.380;2023-03-26T02:23:45;93984.91;;;11.26;72.86
3968;BME280;9221;42.646;23.380;2023-03-26T02:26:13;94058.56;;;11.61;72.78
3968;BME280;9221;42.646;23.380;2023-03-26T02:28:40;93963.66;;;11.20;73.14
3968;BME280;9221;42.646;23.380;2023-03-26T02:31:05;94040.75;;;11.55;72.94
3968;BME280;9221;42.646;23.380;2023-03-26T02:33:34;94048.66;;;11.55;73.11
3968;BME280;9221;42.646;23.380;2023-03-26T02:36:00;94002.84;;;11.39;73.46
3968;BME280;9221;42.646;23.380;2023-03-26T02:38:29;93977.66;;;11.20;73.33
3968;BME280;9221;42.646;23.380;2023-03-26T02:40:58;94021.97;;;11.41;73.31
3968;BME280;9221;42.646;23.380;2023-03-26T02:43:23;94037.34;;;11.38;73.74
3968;BME280;9221;42.646;23.380;2023-03-26T02:45:49;94039.13;;;11.37;73.61
3968;BME280;9221;42.646;23.380;2023-03-26T02:48:14;94034.38;;;11.32;73.77
3968;BME280;9221;42.646;23.380;2023-03-26T02:50:41;94004.72;;;10.97;73.70
3968;BME280;9221;42.646;23.380;2023-03-26T02:53:06;94022.00;;;11.25;73.73
3968;BME280;9221;42.646;23.380;2023-03-26T02:55:32;93985.78;;;11.02;74.28
3968;BME280;9221;42.646;23.380;2023-03-26T02:57:57;94034.91;;;11.20;74.74
3968;BME280;9221;42.646;23.380;2023-03-26T03:00:23;94028.63;;;11.12;75.06
3968;BME280;9221;42.646;23.380;2023-03-26T03:02:50;94037.22;;;11.06;75.22
3968;BME280;9221;42.646;23.380;2023-03-26T03:05:17;94051.41;;;10.97;75.50
3968;BME280;9221;42.646;23.380;2023-03-26T03:07:46;94035.59;;;10.89;75.76
3968;BME280;9221;42.646;23.380;2023-03-26T03:10:13;94054.72;;;10.99;76.13
3968;BME280;9221;42.646;23.380;2023-03-26T03:12:41;94006.59;;;10.56;75.83
3968;BME280;9221;42.646;23.380;2023-03-26T03:15:07;94042.81;;;10.87;75.64
3968;BME280;9221;42.646;23.380;2023-03-26T03:17:33;93901.13;;;9.81;75.50
3968;BME280;9221;42.646;23.380;2023-03-26T03:19:58;94014.00;;;10.52;75.61
3968;BME280;9221;42.646;23.380;2023-03-26T03:22:24;94064.94;;;10.86;75.85
3968;BME280;9221;42.646;23.380;2023-03-26T03:24:50;94098.38;;;10.77;75.68
3968;BME280;9221;42.646;23.380;2023-03-26T03:27:22;94074.16;;;10.81;75.65
3968;BME280;9221;42.646;23.380;2023-03-26T03:29:50;94098.88;;;10.80;75.10
3968;BME280;9221;42.646;23.380;2023-03-26T03:32:18;94081.56;;;10.78;75.36
3968;BME280;9221;42.646;23.380;2023-03-26T03:34:43;94077.13;;;10.78;75.38
3968;BME280;9221;42.646;23.380;2023-03-26T03:37:09;94080.44;;;10.72;75.68
3968;BME280;9221;42.646;23.380;2023-03-26T03:39:34;94094.91;;;10.68;75.67
3968;BME280;9221;42.646;23.380;2023-03-26T03:41:59;94028.00;;;10.36;75.69
3968;BME280;9221;42.646;23.380;2023-03-26T03:44:25;94077.78;;;10.64;76.40
3968;BME280;9221;42.646;23.380;2023-03-26T03:46:51;94024.00;;;10.24;76.02
3968;BME280;9221;42.646;23.380;2023-03-26T03:49:19;94075.13;;;10.56;76.45
3968;BME280;9221;42.646;23.380;2023-03-26T03:51:45;94091.59;;;10.49;76.68
3968;BME280;9221;42.646;23.380;2023-03-26T03:54:10;94096.78;;;10.33;77.14
3968;BME280;9221;42.646;23.380;2023-03-26T03:56:36;94085.44;;;10.32;76.87
3968;BME280;9221;42.646;23.380;2023-03-26T03:59:03;94063.25;;;10.35;77.21
3968;BME280;9221;42.646;23.380;2023-03-26T04:01:28;94103.59;;;10.36;77.37
3968;BME280;9221;42.646;23.380;2023-03-26T04:03:55;94107.06;;;10.36;77.59
3968;BME280;9221;42.646;23.380;2023-03-26T04:06:21;94018.81;;;9.97;77.42
3968;BME280;9221;42.646;23.380;2023-03-26T04:08:49;94030.38;;;10.05;77.36
3968;BME280;9221;42.646;23.380;2023-03-26T04:11:15;94117.22;;;10.31;77.09
3968;BME280;9221;42.646;23.380;2023-03-26T04:13:40;94017.66;;;10.00;77.35
3968;BME280;9221;42.646;23.380;2023-03-26T04:16:06;94036.47;;;10.05;77.39
3968;BME280;9221;42.646;23.380;2023-03-26T04:18:31;94090.53;;;10.34;77.51
3968;BME280;9221;42.646;23.380;2023-03-26T04:20:57;94112.69;;;10.49;77.23
3968;BME280;9221;42.646;23.380;2023-03-26T04:23:27;94112.19;;;10.46;77.28
3968;BME280;9221;42.646;23.380;2023-03-26T04:25:53;94139.03;;;10.49;76.96
3968;BME280;9221;42.646;23.380;2023-03-26T04:30:55;94135.06;;;10.37;77.48
3968;BME280;9221;42.646;23.380;2023-03-26T04:33:26;94144.00;;;10.44;77.33
3968;BME280;9221;42.646;23.380;2023-03-26T04:35:53;94145.63;;;10.54;77.27
3968;BME280;9221;42.646;23.380;2023-03-26T04:38:18;94152.91;;;10.52;77.09
3968;BME280;9221;42.646;23.380;2023-03-26T04:40:44;94125.91;;;10.15;76.73
3968;BME280;9221;42.646;23.380;2023-03-26T04:43:14;94179.94;;;10.62;76.90
3968;BME280;9221;42.646;23.380;2023-03-26T04:45:42;94196.44;;;10.64;76.69
3968;BME280;9221;42.646;23.380;2023-03-26T04:48:08;94161.66;;;10.60;76.86
3968;BME280;9221;42.646;23.380;2023-03-26T04:50:39;94141.47;;;10.35;76.88
3968;BME280;9221;42.646;23.380;2023-03-26T04:53:06;94110.28;;;10.22;76.60
3968;BME280;9221;42.646;23.380;2023-03-26T04:58:20;94115.88;;;10.19;76.14
3968;BME280;9221;42.646;23.380;2023-03-26T05:00:45;94131.78;;;10.35;76.14
3968;BME280;9221;42.646;23.380;2023-03-26T05:03:12;94185.06;;;10.55;75.74
3968;BME280;9221;42.646;23.380;2023-03-26T05:05:38;94128.41;;;10.25;75.51
3968;BME280;9221;42.646;23.380;2023-03-26T05:08:04;94173.53;;;10.64;75.15
3968;BME280;9221;42.646;23.380;2023-03-26T05:10:30;94104.38;;;10.28;74.50
3968;BME280;9221;42.646;23.380;2023-03-26T05:12:55;94199.25;;;10.71;74.00
3968;BME280;9221;42.646;23.380;2023-03-26T05:15:21;94133.28;;;10.46;73.72
3968;BME280;9221;42.646;23.380;2023-03-26T05:17:46;94173.53;;;10.64;73.10
3968;BME280;9221;42.646;23.380;2023-03-26T05:20:24;94177.31;;;10.70;72.40
3968;BME280;9221;42.646;23.380;2023-03-26T05:22:50;94149.94;;;10.55;72.38
3968;BME280;9221;42.646;23.380;2023-03-26T05:25:17;94185.25;;;10.78;71.48
3968;BME280;9221;42.646;23.380;2023-03-26T05:27:43;94193.19;;;10.87;71.44
3968;BME280;9221;42.646;23.380;2023-03-26T05:30:09;94203.25;;;10.91;71.22
3968;BME280;9221;42.646;23.380;2023-03-26T05:32:37;94194.84;;;10.88;71.73
3968;BME280;9221;42.646;23.380;2023-03-26T05:35:03;94195.19;;;10.93;71.89
3968;BME280;9221;42.646;23.380;2023-03-26T05:37:28;94197.66;;;11.03;71.88
3968;BME280;9221;42.646;23.380;2023-03-26T05:39:55;94210.38;;;10.99;72.11
3968;BME280;9221;42.646;23.380;2023-03-26T05:42:21;94138.09;;;10.67;72.10
3968;BME280;9221;42.646;23.380;2023-03-26T05:44:47;94217.78;;;10.95;72.76
3968;BME280;9221;42.646;23.380;2023-03-26T05:47:12;94201.81;;;11.05;71.98
3968;BME280;9221;42.646;23.380;2023-03-26T05:49:38;94224.19;;;10.93;72.16
3968;BME280;9221;42.646;23.380;2023-03-26T05:52:03;94214.19;;;11.05;72.37
3968;BME280;9221;42.646;23.380;2023-03-26T05:54:29;94209.38;;;11.16;71.83
3968;BME280;9221;42.646;23.380;2023-03-26T05:56:55;94163.84;;;10.81;71.60
3968;BME280;9221;42.646;23.380;2023-03-26T05:59:21;94172.75;;;10.97;71.75
3968;BME280;9221;42.646;23.380;2023-03-26T06:01:47;94061.94;;;10.47;71.79
3968;BME280;9221;42.646;23.380;2023-03-26T06:04:13;94199.53;;;11.43;71.17
3968;BME280;9221;42.646;23.380;2023-03-26T06:06:40;94055.03;;;10.63;71.10
3968;BME280;9221;42.646;23.380;2023-03-26T06:09:05;94197.69;;;11.52;70.22
3968;BME280;9221;42.646;23.380;2023-03-26T06:11:31;94124.78;;;11.01;69.98
3968;BME280;9221;42.646;23.380;2023-03-26T06:13:58;94208.09;;;11.45;69.87
3968;BME280;9221;42.646;23.380;2023-03-26T06:16:23;94252.66;;;11.40;68.77
3968;BME280;9221;42.646;23.380;2023-03-26T06:18:48;94127.41;;;11.10;68.57
3968;BME280;9221;42.646;23.380;2023-03-26T06:21:16;94140.13;;;11.23;68.14
3968;BME280;9221;42.646;23.380;2023-03-26T06:23:42;94196.88;;;11.60;67.44
3968;BME280;9221;42.646;23.380;2023-03-26T06:26:07;94058.66;;;10.78;67.69
3968;BME280;9221;42.646;23.380;2023-03-26T06:28:33;94219.66;;;11.69;67.45
3968;BME280;9221;42.646;23.380;2023-03-26T06:30:59;94193.25;;;11.69;67.53
3968;BME280;9221;42.646;23.380;2023-03-26T06:33:25;94197.69;;;11.68;67.27
3968;BME280;9221;42.646;23.380;2023-03-26T06:35:51;94136.81;;;11.37;66.91
3968;BME280;9221;42.646;23.380;2023-03-26T06:38:16;94187.63;;;11.72;67.33
3968;BME280;9221;42.646;23.380;2023-03-26T06:40:42;94217.00;;;11.77;66.40
3968;BME280;9221;42.646;23.380;2023-03-26T06:43:07;94169.00;;;11.41;65.80
3968;BME280;9221;42.646;23.380;2023-03-26T06:45:33;94201.31;;;11.84;65.52
3968;BME280;9221;42.646;23.380;2023-03-26T06:47:58;94200.16;;;11.87;65.65
3968;BME280;9221;42.646;23.380;2023-03-26T06:50:25;94223.59;;;11.81;65.72
3968;BME280;9221;42.646;23.380;2023-03-26T06:52:55;94161.69;;;11.76;65.13
3968;BME280;9221;42.646;23.380;2023-03-26T06:55:21;94156.59;;;11.66;64.28
3968;BME280;9221;42.646;23.380;2023-03-26T06:57:48;94212.53;;;12.02;63.54
3968;BME280;9221;42.646;23.380;2023-03-26T07:00:14;94216.81;;;12.12;62.86
3968;BME280;9221;42.646;23.380;2023-03-26T07:02:40;94228.19;;;12.12;62.96
3968;BME280;9221;42.646;23.380;2023-03-26T07:05:05;94174.06;;;11.75;63.61
3968;BME280;9221;42.646;23.380;2023-03-26T07:07:31;94085.34;;;11.16;62.40
3968;BME280;9221;42.646;23.380;2023-03-26T07:09:56;94227.19;;;12.22;62.28
3968;BME280;9221;42.646;23.380;2023-03-26T07:12:22;94263.84;;;12.41;62.65
3968;BME280;9221;42.646;23.380;2023-03-26T07:14:47;94174.97;;;12.24;62.45
3968;BME280;9221;42.646;23.380;2023-03-26T07:17:13;94217.34;;;12.86;61.49
3968;BME280;9221;42.646;23.380;2023-03-26T07:19:38;94256.66;;;12.98;59.40
3968;BME280;9221;42.646;23.380;2023-03-26T07:22:04;94152.38;;;12.52;60.24
3968;BME280;9221;42.646;23.380;2023-03-26T07:24:30;94221.84;;;13.09;59.83
3968;BME280;9221;42.646;23.380;2023-03-26T07:27:02;94252.47;;;13.35;58.74
3968;BME280;9221;42.646;23.380;2023-03-26T07:32:26;94218.00;;;13.66;55.27
3968;BME280;9221;42.646;23.380;2023-03-26T07:37:55;94252.13;;;13.84;55.28
3968;BME280;9221;42.646;23.380;2023-03-26T07:45:39;94212.78;;;14.11;53.91
3968;BME280;9221;42.646;23.380;2023-03-26T07:48:22;94226.88;;;14.27;53.32
3968;BME280;9221;42.646;23.380;2023-03-26T07:50:58;94201.63;;;14.46;52.85
3968;BME280;9221;42.646;23.380;2023-03-26T07:53:24;94242.72;;;14.50;52.22
3968;BME280;9221;42.646;23.380;2023-03-26T07:58:58;94239.47;;;15.14;51.55
3968;BME280;9221;42.646;23.380;2023-03-26T08:13:14;94193.72;;;15.55;48.19
3968;BME280;9221;42.646;23.380;2023-03-26T08:21:19;94194.22;;;16.92;43.70
3968;BME280;9221;42.646;23.380;2023-03-26T08:31:49;94187.66;;;18.17;40.45
3968;BME280;9221;42.646;23.380;2023-03-26T08:34:14;94202.00;;;18.03;39.08
3968;BME280;9221;42.646;23.380;2023-03-26T08:36:40;94206.53;;;17.96;39.97
3968;BME280;9221;42.646;23.380;2023-03-26T08:39:06;94196.66;;;18.30;39.58
3968;BME280;9221;42.646;23.380;2023-03-26T08:50:14;94194.97;;;18.55;36.23
3968;BME280;9221;42.646;23.380;2023-03-26T09:23:15;94185.56;;;20.07;32.17
3968;BME280;9221;42.646;23.380;2023-03-26T09:31:40;94206.19;;;20.51;30.76
3968;BME280;9221;42.646;23.380;2023-03-26T09:42:16;94173.41;;;20.74;30.59
3968;BME280;9221;42.646;23.380;2023-03-26T09:53:39;94140.44;;;21.64;29.93
3968;BME280;9221;42.646;23.380;2023-03-26T09:58:30;94154.97;;;21.87;29.18
3968;BME280;9221;42.646;23.380;2023-03-26T10:01:19;94100.56;;;21.38;30.53
3968;BME280;9221;42.646;23.380;2023-03-26T10:09:37;94192.94;;;22.26;28.96
3968;BME280;9221;42.646;23.380;2023-03-26T10:14:58;94158.50;;;22.23;29.03
3968;BME280;9221;42.646;23.380;2023-03-26T10:23:39;94125.75;;;22.74;27.29
3968;BME280;9221;42.646;23.380;2023-03-26T10:31:44;94144.72;;;23.48;26.91
3968;BME280;9221;42.646;23.380;2023-03-26T10:41:59;94149.47;;;22.77;26.88
3968;BME280;9221;42.646;23.380;2023-03-26T10:49:58;94036.44;;;22.72;25.74
3968;BME280;9221;42.646;23.380;2023-03-26T10:53:10;94076.72;;;22.43;26.35
3968;BME280;9221;42.646;23.380;2023-03-26T10:55:41;94100.47;;;22.34;25.59
3968;BME280;9221;42.646;23.380;2023-03-26T11:01:00;94089.66;;;22.70;26.05
3968;BME280;9221;42.646;23.380;2023-03-26T11:06:33;94062.56;;;23.80;24.39
3968;BME280;9221;42.646;23.380;2023-03-26T11:09:19;94067.28;;;23.39;24.83
3968;BME280;9221;42.646;23.380;2023-03-26T11:12:04;94023.31;;;22.87;24.92
3968;BME280;9221;42.646;23.380;2023-03-26T11:14:42;94089.59;;;23.22;24.67
3968;BME280;9221;42.646;23.380;2023-03-26T11:17:36;94056.50;;;23.39;24.78
3968;BME280;9221;42.646;23.380;2023-03-26T11:23:22;94041.16;;;23.22;23.74
3968;BME280;9221;42.646;23.380;2023-03-26T11:34:02;94037.25;;;23.13;23.44
3968;BME280;9221;42.646;23.380;2023-03-26T11:36:34;93913.50;;;22.21;23.40
3968;BME280;9221;42.646;23.380;2023-03-26T11:39:03;93987.78;;;22.85;23.21
3968;BME280;9221;42.646;23.380;2023-03-26T11:41:33;94052.59;;;23.29;22.81
3968;BME280;9221;42.646;23.380;2023-03-26T11:44:14;94033.84;;;23.69;22.83
3968;BME280;9221;42.646;23.380;2023-03-26T11:46:44;94079.88;;;24.01;22.92
3968;BME280;9221;42.646;23.380;2023-03-26T11:49:13;94030.63;;;24.45;21.93
3968;BME280;9221;42.646;23.380;2023-03-26T11:51:42;94008.25;;;24.44;21.81
3968;BME280;9221;42.646;23.380;2023-03-26T11:54:11;93956.97;;;23.78;21.69
3968;BME280;9221;42.646;23.380;2023-03-26T11:57:19;93994.81;;;24.05;21.79
3968;BME280;9221;42.646;23.380;2023-03-26T12:02:29;93925.72;;;23.38;22.16
3968;BME280;9221;42.646;23.380;2023-03-26T12:05:21;94030.63;;;24.23;21.91
3968;BME280;9221;42.646;23.380;2023-03-26T12:08:01;93926.72;;;24.10;21.69
3968;BME280;9221;42.646;23.380;2023-03-26T12:10:37;93972.09;;;24.62;21.50
3968;BME280;9221;42.646;23.380;2023-03-26T12:15:47;93959.66;;;24.61;21.82
3968;BME280;9221;42.646;23.380;2023-03-26T12:18:24;93966.06;;;24.11;21.36
3968;BME280;9221;42.646;23.380;2023-03-26T12:21:11;93955.34;;;24.16;21.00
3968;BME280;9221;42.646;23.380;2023-03-26T12:23:42;93956.47;;;24.20;21.43
3968;BME280;9221;42.646;23.380;2023-03-26T12:26:41;93945.50;;;24.27;21.20
3968;BME280;9221;42.646;23.380;2023-03-26T12:29:14;93938.63;;;24.14;20.46
3968;BME280;9221;42.646;23.380;2023-03-26T12:34:30;93935.28;;;24.29;20.49
3968;BME280;9221;42.646;23.380;2023-03-26T12:36:59;93903.88;;;24.40;20.71
3968;BME280;9221;42.646;23.380;2023-03-26T12:41:56;93913.06;;;24.93;20.98
3968;BME280;9221;42.646;23.380;2023-03-26T12:44:33;93905.09;;;25.09;20.17
3968;BME280;9221;42.646;23.380;2023-03-26T12:47:19;93912.31;;;24.71;20.01
3968;BME280;9221;42.646;23.380;2023-03-26T12:49:46;93890.38;;;24.89;20.71
3968;BME280;9221;42.646;23.380;2023-03-26T12:52:29;93915.16;;;24.37;18.81
3968;BME280;9221;42.646;23.380;2023-03-26T12:58:26;93854.75;;;24.32;18.82
3968;BME280;9221;42.646;23.380;2023-03-26T13:01:13;93895.84;;;24.45;18.64
3968;BME280;9221;42.646;23.380;2023-03-26T13:06:32;93877.94;;;24.33;18.91
3968;BME280;9221;42.646;23.380;2023-03-26T13:17:56;93877.78;;;23.35;19.87
3968;BME280;9221;42.646;23.380;2023-03-26T13:28:56;93875.59;;;22.35;20.18
3968;BME280;9221;42.646;23.380;2023-03-26T13:34:58;93883.84;;;21.75;19.88
3968;BME280;9221;42.646;23.380;2023-03-26T13:43:31;93879.72;;;20.54;20.54
3968;BME280;9221;42.646;23.380;2023-03-26T13:46:15;93873.94;;;20.27;21.30
3968;BME280;9221;42.646;23.380;2023-03-26T13:48:58;93877.38;;;19.85;22.04
3968;BME280;9221;42.646;23.380;2023-03-26T13:54:40;93861.91;;;19.50;21.03
3968;BME280;9221;42.646;23.380;2023-03-26T13:57:11;93865.34;;;19.39;21.64
3968;BME280;9221;42.646;23.380;2023-03-26T14:00:12;93890.28;;;19.33;21.19
3968;BME280;9221;42.646;23.380;2023-03-26T14:05:45;93863.56;;;19.14;21.12
3968;BME280;9221;42.646;23.380;2023-03-26T14:08:22;93805.28;;;18.79;20.94
3968;BME280;9221;42.646;23.380;2023-03-26T14:11:13;93859.22;;;18.94;21.31
3968;BME280;9221;42.646;23.380;2023-03-26T14:13:48;93876.81;;;18.77;21.04
3968;BME280;9221;42.646;23.380;2023-03-26T14:16:34;93845.63;;;18.71;21.09
3968;BME280;9221;42.646;23.380;2023-03-26T14:19:53;93802.97;;;18.39;21.17
3968;BME280;9221;42.646;23.380;2023-03-26T14:32:49;93846.38;;;18.78;22.93
3968;BME280;9221;42.646;23.380;2023-03-26T14:43:50;93838.97;;;18.80;23.79
3968;BME280;9221;42.646;23.380;2023-03-26T14:46:51;93835.66;;;18.59;24.28
3968;BME280;9221;42.646;23.380;2023-03-26T14:54:47;93839.75;;;18.62;24.87
3968;BME280;9221;42.646;23.380;2023-03-26T14:57:34;93839.84;;;18.74;25.09
3968;BME280;9221;42.646;23.380;2023-03-26T15:31:32;93895.97;;;18.42;24.56
3968;BME280;9221;42.646;23.380;2023-03-26T15:37:05;93875.38;;;18.49;24.79
3968;BME280;9221;42.646;23.380;2023-03-26T15:42:43;93837.72;;;18.32;24.91
3968;BME280;9221;42.646;23.380;2023-03-26T15:45:18;93869.72;;;18.39;24.55
3968;BME280;9221;42.646;23.380;2023-03-26T15:50:40;93861.50;;;18.91;24.67
3968;BME280;9221;42.646;23.380;2023-03-26T15:56:16;93876.19;;;19.25;25.19
3968;BME280;9221;42.646;23.380;2023-03-26T16:04:27;93844.97;;;19.01;26.12
3968;BME280;9221;42.646;23.380;2023-03-26T16:15:24;93852.09;;;18.31;26.01
3968;BME280;9221;42.646;23.380;2023-03-26T16:23:28;93864.38;;;18.39;26.31
3968;BME280;9221;42.646;23.380;2023-03-26T16:28:31;93879.97;;;18.10;27.43
3968;BME280;9221;42.646;23.380;2023-03-26T16:31:21;93871.16;;;18.03;27.74
3968;BME280;9221;42.646;23.380;2023-03-26T16:34:18;93819.22;;;17.67;27.85
3968;BME280;9221;42.646;23.380;2023-03-26T16:36:44;93818.91;;;17.50;27.89
3968;BME280;9221;42.646;23.380;2023-03-26T16:39:16;93864.28;;;17.82;28.16
3968;BME280;9221;42.646;23.380;2023-03-26T16:47:27;93871.91;;;17.71;28.77
3968;BME280;9221;42.646;23.380;2023-03-26T16:52:48;93853.34;;;17.51;28.75
3968;BME280;9221;42.646;23.380;2023-03-26T17:00:53;93889.81;;;17.57;28.84
3968;BME280;9221;42.646;23.380;2023-03-26T17:18:12;93820.31;;;16.73;31.25
3968;BME280;9221;42.646;23.380;2023-03-26T17:20:50;93870.66;;;17.08;31.38
3968;BME280;9221;42.646;23.380;2023-03-26T17:23:36;93916.16;;;17.07;31.73
3968;BME280;9221;42.646;23.380;2023-03-26T17:26:10;93891.19;;;17.08;31.52
3968;BME280;9221;42.646;23.380;2023-03-26T17:31:23;93930.09;;;16.69;31.65
3968;BME280;9221;42.646;23.380;2023-03-26T17:33:51;93843.88;;;16.70;31.48
3968;BME280;9221;42.646;23.380;2023-03-26T17:36:39;93762.22;;;16.17;31.45
3968;BME280;9221;42.646;23.380;2023-03-26T17:44:53;93858.38;;;15.87;33.87
3968;BME280;9221;42.646;23.380;2023-03-26T17:47:33;93889.03;;;15.89;34.30
3968;BME280;9221;42.646;23.380;2023-03-26T17:50:10;93865.59;;;15.65;34.69
3968;BME280;9221;42.646;23.380;2023-03-26T17:55:19;93871.75;;;15.65;34.82
3968;BME280;9221;42.646;23.380;2023-03-26T17:57:51;93883.56;;;15.49;34.94
3968;BME280;9221;42.646;23.380;2023-03-26T18:00:22;93750.53;;;14.61;35.16
3968;BME280;9221;42.646;23.380;2023-03-26T18:02:54;93847.88;;;15.23;35.91
3968;BME280;9221;42.646;23.380;2023-03-26T18:05:24;93876.94;;;15.32;35.30
3968;BME280;9221;42.646;23.380;2023-03-26T18:14:24;93872.31;;;14.55;36.42
3968;BME280;9221;42.646;23.380;2023-03-26T18:16:36;93859.88;;;14.28;37.12
3968;BME280;9221;42.646;23.380;2023-03-26T18:19:12;93860.41;;;14.16;37.39
3968;BME280;9221;42.646;23.380;2023-03-26T18:21:44;93818.03;;;13.80;37.52
3968;BME280;9221;42.646;23.380;2023-03-26T18:24:21;93877.31;;;14.15;37.38
3968;BME280;9221;42.646;23.380;2023-03-26T18:27:04;93878.63;;;14.26;37.11
3968;BME280;9221;42.646;23.380;2023-03-26T18:29:32;93857.34;;;14.19;37.29
3968;BME280;9221;42.646;23.380;2023-03-26T18:34:37;93814.06;;;13.69;37.55
3968;BME280;9221;42.646;23.380;2023-03-26T18:39:33;93892.75;;;14.12;36.57
3968;BME280;9221;42.646;23.380;2023-03-26T18:41:59;93836.78;;;14.00;36.49
3968;BME280;9221;42.646;23.380;2023-03-26T18:44:24;93890.38;;;14.17;36.79
3968;BME280;9221;42.646;23.380;2023-03-26T18:46:53;93846.00;;;14.26;36.74
3968;BME280;9221;42.646;23.380;2023-03-26T18:49:19;93800.94;;;14.04;35.78
3968;BME280;9221;42.646;23.380;2023-03-26T18:51:47;93846.63;;;14.06;36.14
3968;BME280;9221;42.646;23.380;2023-03-26T18:54:16;93853.06;;;13.97;36.72
3968;BME280;9221;42.646;23.380;2023-03-26T18:56:45;93794.13;;;13.73;36.38
3968;BME280;9221;42.646;23.380;2023-03-26T18:59:31;93835.16;;;13.99;36.08
3968;BME280;9221;42.646;23.380;2023-03-26T19:02:01;93787.13;;;13.65;35.88
3968;BME280;9221;42.646;23.380;2023-03-26T19:04:30;93851.03;;;13.77;36.08
3968;BME280;9221;42.646;23.380;2023-03-26T19:06:58;93797.56;;;13.67;36.27
3968;BME280;9221;42.646;23.380;2023-03-26T19:09:25;93741.91;;;13.45;35.78
3968;BME280;9221;42.646;23.380;2023-03-26T19:12:19;93812.75;;;14.01;35.75
3968;BME280;9221;42.646;23.380;2023-03-26T19:14:52;93793.53;;;13.99;35.60
3968;BME280;9221;42.646;23.380;2023-03-26T19:17:18;93797.03;;;14.00;35.66
3968;BME280;9221;42.646;23.380;2023-03-26T19:19:44;93877.75;;;13.97;35.40
3968;BME280;9221;42.646;23.380;2023-03-26T19:22:10;93767.44;;;13.75;35.32
3968;BME280;9221;42.646;23.380;2023-03-26T19:24:36;93805.00;;;13.78;35.61
3968;BME280;9221;42.646;23.380;2023-03-26T19:27:02;93789.63;;;13.74;35.45
3968;BME280;9221;42.646;23.380;2023-03-26T19:29:30;93794.94;;;13.74;35.61
3968;BME280;9221;42.646;23.380;2023-03-26T19:32:05;93778.75;;;13.62;35.56
3968;BME280;9221;42.646;23.380;2023-03-26T19:34:39;93796.34;;;13.48;36.73
3968;BME280;9221;42.646;23.380;2023-03-26T19:37:26;93726.06;;;12.94;37.31